This is the latest recevied weather packets stored in our database for station/object CE3MXM-13. If no packets are shown the sender has not sent any weather packets the latest 1 day(s).
| Time | Temp. | Humidity | Pressure | Rain* | Wind** | Luminosity | Snow |
|---|---|---|---|---|---|---|---|
| 1778026514 | 13.89° C | 78% | 1011.5 hPa | - | 0 m/s | - | - |
| 1778026215 | 14.44° C | 77% | 1011.3 hPa | - | 0 m/s | - | - |
| 1778025914 | 14.44° C | 77% | 1011.4 hPa | - | 0.89 m/s, 286° | - | - |
| 1778025614 | 14.44° C | 78% | 1011.2 hPa | - | 1.79 m/s, 229° | - | - |
| 1778025314 | 13.89° C | 78% | 1011.1 hPa | - | 7.6 m/s, 326° | - | - |
| 1778025014 | 13.89° C | 78% | 1011 hPa | - | 0 m/s | - | - |
| 1778024714 | 14.44° C | 77% | 1011.1 hPa | - | 0.45 m/s, 236° | - | - |
| 1778024414 | 14.44° C | 77% | 1011.1 hPa | - | 0 m/s | - | - |
| 1778024113 | 14.44° C | 77% | 1011.1 hPa | - | 2.68 m/s, 313° | - | - |
| 1778023814 | 14.44° C | 77% | 1010.9 hPa | - | 0 m/s | - | - |
| 1778023513 | 14.44° C | 77% | 1010.8 hPa | - | 0.45 m/s, 162° | - | - |
| 1778023213 | 14.44° C | 76% | 1010.8 hPa | - | 0 m/s | - | - |
| 1778022913 | 14.44° C | 76% | 1010.9 hPa | - | 0.89 m/s, 270° | - | - |
| 1778022613 | 15° C | 76% | 1010.8 hPa | - | 0 m/s | - | - |
| 1778022313 | 15° C | 76% | 1010.8 hPa | - | 0 m/s | - | - |
| 1778022013 | 15° C | 75% | 1010.7 hPa | - | 0.45 m/s, 40° | - | - |
| 1778021713 | 15° C | 75% | 1010.6 hPa | - | 0 m/s | - | - |
| 1778021413 | 15.56° C | 74% | 1010.7 hPa | - | 0 m/s | - | - |
| 1778021113 | 15.56° C | 74% | 1010.4 hPa | - | 3.13 m/s, 289° | - | - |
| 1778020812 | 15.56° C | 74% | 1010.5 hPa | - | 1.34 m/s, 343° | - | - |
| 1778020513 | 15.56° C | 73% | 1010.4 hPa | - | 0.45 m/s, 288° | - | - |
| 1778020216 | 15.56° C | 73% | 1010.3 hPa | - | 1.79 m/s, 316° | - | - |
| 1778019912 | 15.56° C | 73% | 1010.5 hPa | - | 0.89 m/s, 150° | - | - |
| 1778019612 | 16.11° C | 72% | 1010.1 hPa | - | 0 m/s | - | - |
| 1778019312 | 16.11° C | 72% | 1010 hPa | - | 0.45 m/s, 52° | - | - |
* Rain since midnight (hover to see other rain measurements)
** Current wind speed in m/s (hover to see current wind gust speed)